Time;durP1;ratioP1;P1;durP2;ratioP2;P2;SDS_P1;SDS_P2;PMS_P1;PMS_P2;Temp;Humidity;BMP_temperature;BMP_pressure;BME280_temperature;BME280_humidity;BME280_pressure;Samples;Min_cycle;Max_cycle;Signal;HPM_P1;HPM_P2
2023/06/26 00:01:31;;;;;;;5.32;4.82;;;;;;;24.05;71.28;101194.91;5129700;27;20027;-37
2023/06/26 00:03:57;;;;;;;6.03;4.38;;;;;;;24.14;71.11;101210.44;5129938;27;20134;-37
2023/06/26 00:06:24;;;;;;;5.95;4.30;;;;;;;24.15;69.81;101209.28;5129792;27;20110;-37
2023/06/26 00:08:50;;;;;;;4.70;4.30;;;;;;;24.16;68.70;101207.38;5129791;27;20532;-37
2023/06/26 00:11:15;;;;;;;6.40;4.72;;;;;;;24.19;67.93;101200.38;5120049;27;20024;-37
2023/06/26 00:13:41;;;;;;;5.03;4.45;;;;;;;24.02;68.45;101182.56;5116725;28;20038;-37
2023/06/26 00:16:07;;;;;;;4.93;4.28;;;;;;;24.16;67.70;101199.09;5116034;28;20392;-37
2023/06/26 00:18:32;;;;;;;4.47;3.90;;;;;;;24.12;67.19;101193.34;5115515;28;20031;-37
2023/06/26 00:20:57;;;;;;;5.00;4.00;;;;;;;24.01;67.31;101191.13;5116502;27;20019;-37
2023/06/26 00:23:23;;;;;;;6.47;3.95;;;;;;;24.10;67.74;101189.25;5115943;28;20333;-37
2023/06/26 00:25:48;;;;;;;4.40;4.00;;;;;;;24.12;67.93;101192.53;5116158;28;20107;-37
2023/06/26 00:28:13;;;;;;;4.82;4.32;;;;;;;24.01;67.96;101188.38;5115551;28;20440;-37
2023/06/26 00:30:39;;;;;;;5.85;4.57;;;;;;;23.97;68.39;101195.69;5115568;28;20456;-37
2023/06/26 00:33:04;;;;;;;4.63;4.22;;;;;;;23.92;68.40;101193.84;5115660;28;20360;-37
2023/06/26 00:35:29;;;;;;;5.72;4.30;;;;;;;23.88;68.64;101187.31;5115674;28;20028;-37
2023/06/26 00:37:55;;;;;;;8.73;4.45;;;;;;;23.85;69.47;101185.97;5115279;28;20020;-37
2023/06/26 00:40:20;;;;;;;4.50;4.10;;;;;;;23.87;68.57;101185.69;5115523;28;20032;-37
2023/06/26 00:42:45;;;;;;;6.32;4.22;;;;;;;23.84;68.70;101187.13;5115414;28;20043;-37
2023/06/26 00:45:11;;;;;;;5.00;4.50;;;;;;;23.91;68.28;101192.19;5116077;28;20055;-37
2023/06/26 00:47:37;;;;;;;5.35;4.72;;;;;;;23.84;68.46;101187.13;5115419;28;20035;-37
2023/06/26 00:50:03;;;;;;;6.03;4.68;;;;;;;23.82;68.40;101194.91;5115328;28;20036;-37
2023/06/26 00:52:28;;;;;;;6.95;4.35;;;;;;;23.85;68.33;101193.44;5115040;28;20538;-37
2023/06/26 00:54:55;;;;;;;8.70;4.20;;;;;;;23.78;68.89;101199.41;5115226;28;20031;-37
2023/06/26 00:57:20;;;;;;;4.90;4.45;;;;;;;23.73;69.39;101202.28;5115963;28;20469;-37
2023/06/26 00:59:46;;;;;;;5.70;4.72;;;;;;;23.60;69.31;101181.84;5115325;28;20039;-37
2023/06/26 01:02:11;;;;;;;4.82;4.22;;;;;;;23.67;69.50;101203.56;5115767;28;20031;-37
2023/06/26 01:04:36;;;;;;;5.32;4.82;;;;;;;23.52;70.38;101203.81;5114792;28;20523;-37
2023/06/26 01:07:03;;;;;;;5.88;4.63;;;;;;;23.55;69.87;101201.28;5115298;28;20390;-37
2023/06/26 01:09:30;;;;;;;5.05;4.40;;;;;;;23.48;70.67;101202.84;5115409;28;20105;-37
2023/06/26 01:11:56;;;;;;;6.00;4.38;;;;;;;23.46;70.52;101208.66;5115290;28;20035;-37
2023/06/26 01:14:21;;;;;;;5.47;4.72;;;;;;;23.36;71.11;101215.19;5115023;28;20020;-37
2023/06/26 01:16:49;;;;;;;4.65;4.18;;;;;;;23.33;70.61;101210.31;5115182;28;20140;-37
2023/06/26 01:19:24;;;;;;;6.53;4.50;;;;;;;23.38;70.61;101206.63;5114619;28;20040;-37
2023/06/26 01:21:56;;;;;;;4.90;4.40;;;;;;;23.32;71.16;101216.94;5114273;28;20041;-37
2023/06/26 01:24:27;;;;;;;5.45;4.50;;;;;;;23.35;71.08;101223.78;5114420;28;20035;-37
2023/06/26 01:26:52;;;;;;;5.97;4.85;;;;;;;23.19;71.84;101216.97;5115303;28;20027;-37
2023/06/26 01:29:19;;;;;;;6.20;4.50;;;;;;;23.13;71.77;101211.56;5114425;28;20019;-38
2023/06/26 01:31:48;;;;;;;8.30;4.85;;;;;;;23.20;71.75;101229.63;5114619;28;20023;-37
2023/06/26 01:34:15;;;;;;;5.10;4.60;;;;;;;23.12;72.58;101225.63;5114592;28;20383;-37
2023/06/26 01:36:41;;;;;;;6.22;4.60;;;;;;;23.05;72.72;101230.75;5114888;28;20435;-37
2023/06/26 01:39:08;;;;;;;5.80;4.93;;;;;;;23.09;72.63;101227.06;5113834;28;20073;-37
2023/06/26 01:41:34;;;;;;;6.50;4.65;;;;;;;22.95;72.48;101234.53;5114589;28;20024;-37
2023/06/26 01:44:23;;;;;;;5.43;4.40;;;;;;;22.95;72.13;101237.28;5113847;28;20031;-37
2023/06/26 01:46:59;;;;;;;4.95;3.83;;;;;;;22.88;72.28;101243.16;5114212;28;20027;-37
2023/06/26 01:49:41;;;;;;;5.40;3.65;;;;;;;22.82;71.84;101249.06;5114674;28;20050;-37
2023/06/26 01:52:26;;;;;;;4.18;3.50;;;;;;;22.76;72.53;101258.56;5114016;28;20027;-37
2023/06/26 01:55:00;;;;;;;4.07;3.67;;;;;;;22.77;72.55;101261.00;5114499;28;20440;-37
2023/06/26 01:57:28;;;;;;;4.32;3.63;;;;;;;22.76;72.29;101259.38;5114240;28;20360;-37
2023/06/26 01:59:55;;;;;;;7.20;3.60;;;;;;;22.67;72.47;101266.69;5113696;28;20372;-37
2023/06/26 02:02:23;;;;;;;5.13;3.50;;;;;;;22.58;72.77;101260.22;5114637;28;20134;-37
2023/06/26 02:04:49;;;;;;;6.43;3.70;;;;;;;22.53;72.96;101246.53;5113750;28;20054;-37
2023/06/26 02:07:14;;;;;;;5.38;3.22;;;;;;;22.52;73.21;101253.19;5114312;28;20407;-37
2023/06/26 02:09:40;;;;;;;4.53;3.33;;;;;;;22.41;74.07;101249.78;5113774;28;20028;-37
2023/06/26 02:12:05;;;;;;;4.38;3.65;;;;;;;22.36;73.64;101236.91;5113887;28;20024;-37
2023/06/26 02:14:31;;;;;;;5.38;3.47;;;;;;;22.32;74.10;101251.56;5113387;28;20034;-37
2023/06/26 02:16:56;;;;;;;5.75;3.30;;;;;;;22.50;73.30;101264.50;5113930;28;20035;-37
2023/06/26 02:19:22;;;;;;;6.35;3.53;;;;;;;22.38;74.23;101263.31;5114020;28;20035;-37
2023/06/26 02:21:49;;;;;;;3.88;3.30;;;;;;;22.40;74.40;101255.56;5113656;28;20023;-37
2023/06/26 02:24:14;;;;;;;5.32;3.40;;;;;;;22.33;74.38;101247.69;5113543;28;20094;-37
2023/06/26 02:26:39;;;;;;;4.63;3.00;;;;;;;22.31;74.52;101250.75;5113287;28;20130;-37
2023/06/26 02:29:05;;;;;;;4.97;3.30;;;;;;;22.28;74.31;101256.84;5113515;28;20427;-37
2023/06/26 02:31:30;;;;;;;5.13;3.60;;;;;;;22.19;74.35;101258.66;5113523;28;20459;-37
2023/06/26 02:33:55;;;;;;;5.35;3.13;;;;;;;22.16;75.32;101263.97;5113359;28;20023;-37
2023/06/26 02:36:21;;;;;;;5.78;3.47;;;;;;;22.11;74.45;101259.34;5114129;28;20024;-37
2023/06/26 02:38:46;;;;;;;4.13;3.10;;;;;;;22.03;74.67;101269.06;5113244;28;20027;-37
2023/06/26 02:41:11;;;;;;;5.05;3.22;;;;;;;21.93;74.10;101276.66;5113626;28;20041;-37
2023/06/26 02:43:37;;;;;;;4.28;2.58;;;;;;;21.94;73.63;101273.59;5113290;28;20024;-37
2023/06/26 02:46:02;;;;;;;4.10;2.80;;;;;;;21.97;73.61;101280.44;5113944;28;20027;-37
2023/06/26 02:48:28;;;;;;;7.95;3.35;;;;;;;21.84;74.24;101288.31;5113431;28;20059;-37
2023/06/26 02:50:53;;;;;;;5.35;2.90;;;;;;;21.83;74.09;101277.59;5113876;28;20038;-37
2023/06/26 02:53:18;;;;;;;4.88;2.80;;;;;;;21.82;74.04;101285.03;5113633;28;20078;-37
2023/06/26 02:55:43;;;;;;;8.30;3.20;;;;;;;21.78;74.48;101284.00;5113398;28;20056;-37
2023/06/26 02:58:09;;;;;;;8.02;2.72;;;;;;;21.80;74.81;101289.19;5113081;28;20420;-37
2023/06/26 03:00:34;;;;;;;4.90;2.58;;;;;;;21.77;74.83;101301.63;5114098;28;20044;-37
2023/06/26 03:03:00;;;;;;;4.72;2.67;;;;;;;21.71;75.36;101307.47;5113085;28;20461;-37
2023/06/26 03:05:25;;;;;;;5.15;2.97;;;;;;;21.73;75.27;101306.09;5112799;28;20027;-37
2023/06/26 03:07:51;;;;;;;7.40;2.95;;;;;;;21.65;75.79;101303.97;5114080;28;20031;-37
2023/06/26 03:10:16;;;;;;;6.00;3.10;;;;;;;21.55;75.98;101309.59;5113361;28;20034;-37
2023/06/26 03:12:41;;;;;;;8.70;3.40;;;;;;;21.59;76.38;101313.41;5113050;28;20111;-37
2023/06/26 03:15:07;;;;;;;7.03;3.22;;;;;;;21.58;76.60;101303.53;5112936;28;20044;-37
2023/06/26 03:17:32;;;;;;;4.85;2.70;;;;;;;21.51;77.07;101308.53;5113425;28;20028;-37
2023/06/26 03:19:58;;;;;;;4.60;3.20;;;;;;;21.44;77.41;101306.16;5112565;28;20031;-37
2023/06/26 03:22:23;;;;;;;5.90;3.20;;;;;;;21.52;77.01;101305.53;5112968;28;20020;-37
2023/06/26 03:24:49;;;;;;;6.60;3.25;;;;;;;21.45;77.72;101306.97;5112542;28;20064;-37
2023/06/26 03:27:14;;;;;;;5.97;3.45;;;;;;;21.37;78.13;101297.41;5113046;28;20016;-37
2023/06/26 03:29:39;;;;;;;7.70;3.50;;;;;;;21.40;78.18;101307.84;5112821;28;20053;-37
2023/06/26 03:32:05;;;;;;;4.95;3.10;;;;;;;21.32;78.43;101295.53;5112512;28;20034;-37
2023/06/26 03:34:31;;;;;;;6.90;2.97;;;;;;;21.18;79.56;101297.34;5113171;28;20084;-37
2023/06/26 03:36:56;;;;;;;5.95;3.00;;;;;;;21.26;79.24;101299.44;5113405;28;20027;-37
2023/06/26 03:39:22;;;;;;;4.55;3.10;;;;;;;21.20;79.68;101297.03;5112665;28;20031;-37
2023/06/26 03:41:47;;;;;;;4.72;3.17;;;;;;;21.16;79.81;101302.28;5113239;28;20466;-37
2023/06/26 03:44:12;;;;;;;5.50;2.90;;;;;;;21.07;80.14;101293.84;5112681;28;20027;-37
2023/06/26 03:46:38;;;;;;;6.10;3.08;;;;;;;21.04;80.67;101291.72;5115422;28;20026;-37
2023/06/26 03:49:03;;;;;;;6.40;3.13;;;;;;;20.98;81.12;101300.28;5115799;28;20408;-37
2023/06/26 03:51:29;;;;;;;4.85;3.03;;;;;;;21.04;81.44;101299.13;5116032;28;20054;-37
2023/06/26 03:53:54;;;;;;;6.90;3.83;;;;;;;21.01;81.45;101299.72;5116726;28;20063;-37
2023/06/26 03:56:19;;;;;;;8.05;3.35;;;;;;;21.00;81.92;101320.06;5116356;28;20110;-37
2023/06/26 03:58:45;;;;;;;5.05;3.38;;;;;;;21.04;82.44;101329.38;5116127;27;20101;-37
2023/06/26 04:01:10;;;;;;;4.63;2.80;;;;;;;21.00;82.63;101336.56;5116753;28;20028;-37
2023/06/26 04:03:35;;;;;;;7.10;3.25;;;;;;;20.94;83.33;101329.47;5115962;28;20372;-37
2023/06/26 04:06:01;;;;;;;5.53;3.22;;;;;;;20.80;83.57;101327.38;5116587;27;20034;-37
2023/06/26 04:08:26;;;;;;;7.57;3.40;;;;;;;20.89;84.18;101340.53;5116389;28;20106;-37
2023/06/26 04:10:52;;;;;;;5.20;3.60;;;;;;;20.90;84.35;101340.22;5116614;28;20030;-37
2023/06/26 04:13:17;;;;;;;7.10;3.30;;;;;;;20.78;85.23;101339.75;5116103;28;20059;-37
2023/06/26 04:15:43;;;;;;;9.68;3.72;;;;;;;20.67;86.19;101338.22;5115995;28;20069;-37
2023/06/26 04:18:08;;;;;;;6.88;3.17;;;;;;;20.78;85.90;101350.75;5115940;28;20059;-37
2023/06/26 04:20:40;;;;;;;4.70;3.00;;;;;;;20.79;86.02;101353.22;5116340;28;20028;-37
2023/06/26 04:23:05;;;;;;;5.38;2.90;;;;;;;20.76;86.03;101348.31;5116603;28;20059;-37
2023/06/26 04:25:31;;;;;;;7.75;3.42;;;;;;;20.86;86.18;101358.41;5115944;28;20066;-37
2023/06/26 04:27:56;;;;;;;8.82;3.88;;;;;;;20.70;87.80;101354.94;5115848;28;20455;-37
2023/06/26 04:30:21;;;;;;;8.45;3.78;;;;;;;20.76;87.90;101353.81;5116214;28;20024;-37
2023/06/26 04:32:47;;;;;;;6.93;3.17;;;;;;;20.87;87.80;101360.03;5115977;28;20378;-37
2023/06/26 04:35:12;;;;;;;8.20;3.20;;;;;;;20.82;88.42;101355.38;5115711;28;20432;-37
2023/06/26 04:37:39;;;;;;;8.45;3.45;;;;;;;20.89;88.06;101354.25;5115885;28;20066;-37
2023/06/26 04:40:06;;;;;;;7.20;3.53;;;;;;;20.90;88.90;101364.97;5115445;28;20032;-37
2023/06/26 04:42:32;;;;;;;7.45;3.22;;;;;;;21.00;88.86;101364.88;5115551;28;20063;-37
2023/06/26 04:44:57;;;;;;;7.15;3.25;;;;;;;21.06;88.87;101368.41;5115483;28;20110;-37
2023/06/26 04:47:23;;;;;;;9.35;4.00;;;;;;;21.14;88.41;101381.53;5115433;28;20184;-37
2023/06/26 04:49:48;;;;;;;12.35;4.07;;;;;;;21.03;89.61;101380.81;5115435;28;20045;-37
2023/06/26 04:52:14;;;;;;;7.20;3.42;;;;;;;20.98;89.24;101380.00;5115459;28;20035;-37
2023/06/26 04:54:39;;;;;;;10.27;4.20;;;;;;;21.02;88.32;101378.31;5115229;28;20038;-37
2023/06/26 04:57:05;;;;;;;12.30;3.25;;;;;;;21.01;88.88;101383.00;5116101;28;20034;-37
2023/06/26 04:59:31;;;;;;;9.60;3.60;;;;;;;20.98;88.34;101386.31;5113609;28;20138;-37
2023/06/26 05:01:56;;;;;;;8.68;3.33;;;;;;;21.02;88.44;101387.38;5115375;28;20031;-37
2023/06/26 05:04:22;;;;;;;9.65;3.80;;;;;;;21.05;88.11;101397.81;5115076;28;20042;-37
2023/06/26 05:06:48;;;;;;;9.05;3.35;;;;;;;21.11;88.29;101398.59;5115634;27;20020;-37
2023/06/26 05:09:13;;;;;;;7.80;3.28;;;;;;;21.08;88.02;101399.16;5114956;28;20027;-37
2023/06/26 05:11:39;;;;;;;8.43;3.58;;;;;;;21.07;87.92;101408.53;5114701;28;20027;-37
2023/06/26 05:14:07;;;;;;;13.90;4.65;;;;;;;20.92;86.86;101389.41;5114807;28;20023;-37
2023/06/26 05:16:34;;;;;;;12.32;3.78;;;;;;;20.94;87.36;101403.69;5115600;28;20096;-37
2023/06/26 05:18:59;;;;;;;24.05;3.70;;;;;;;21.04;86.37;101403.63;5114265;28;20027;-37
2023/06/26 05:21:25;;;;;;;8.75;3.60;;;;;;;21.03;86.71;101416.53;5115259;28;20077;-37
2023/06/26 05:23:51;;;;;;;8.95;3.50;;;;;;;21.04;86.77;101409.94;5114605;28;20027;-37
2023/06/26 05:26:17;;;;;;;10.52;3.67;;;;;;;21.14;85.88;101419.22;5114947;28;20028;-37
2023/06/26 05:28:48;;;;;;;11.93;4.00;;;;;;;21.18;86.06;101410.09;5114870;28;20028;-37
2023/06/26 05:31:13;;;;;;;7.78;3.08;;;;;;;21.38;85.34;101408.31;5114718;28;20030;-37
2023/06/26 05:33:42;;;;;;;8.55;3.20;;;;;;;21.43;84.26;101419.25;5114448;28;20027;-37
2023/06/26 05:36:09;;;;;;;8.13;2.95;;;;;;;21.51;83.10;101424.09;5114947;28;20027;-36
2023/06/26 05:38:35;;;;;;;8.80;3.30;;;;;;;21.41;82.79;101426.97;5113966;28;20030;-36
2023/06/26 05:41:00;;;;;;;10.38;3.30;;;;;;;21.41;82.87;101425.03;5114338;28;20532;-36
2023/06/26 05:43:26;;;;;;;7.53;3.20;;;;;;;21.46;82.48;101430.47;5114365;27;20031;-36
2023/06/26 05:45:51;;;;;;;10.10;3.33;;;;;;;21.50;81.78;101444.47;5114294;28;20439;-36
2023/06/26 05:48:16;;;;;;;7.53;3.00;;;;;;;21.57;81.34;101444.97;5114226;28;20028;-36
2023/06/26 05:50:43;;;;;;;10.35;3.00;;;;;;;21.56;81.29;101441.38;5114069;28;20532;-36
2023/06/26 05:53:09;;;;;;;9.52;3.05;;;;;;;21.56;80.36;101455.16;5114487;28;20329;-36
2023/06/26 05:55:35;;;;;;;10.60;3.53;;;;;;;21.60;80.45;101452.63;5114265;28;20024;-36
2023/06/26 05:58:02;;;;;;;8.93;2.92;;;;;;;21.67;79.73;101457.78;5113876;28;20030;-36
2023/06/26 06:00:28;;;;;;;8.88;3.42;;;;;;;21.65;79.73;101458.09;5114516;28;20367;-36
2023/06/26 06:02:54;;;;;;;8.27;2.92;;;;;;;21.63;79.06;101465.84;5113979;28;20055;-36
2023/06/26 06:05:20;;;;;;;10.02;2.95;;;;;;;21.60;79.58;101460.91;5114379;28;20481;-36
2023/06/26 06:07:45;;;;;;;9.48;3.33;;;;;;;21.71;79.63;101465.19;5113458;28;20019;-36
2023/06/26 06:10:11;;;;;;;11.07;3.60;;;;;;;21.78;79.69;101468.41;5113061;28;20074;-36
2023/06/26 06:12:36;;;;;;;8.80;3.20;;;;;;;21.81;78.45;101476.13;5114047;28;20374;-36
2023/06/26 06:15:01;;;;;;;8.45;2.75;;;;;;;21.90;79.19;101469.94;5113881;28;20110;-36
2023/06/26 06:17:27;;;;;;;6.93;2.45;;;;;;;21.82;77.81;101477.75;5113569;28;20088;-36
2023/06/26 06:19:52;;;;;;;10.02;3.33;;;;;;;21.72;77.68;101472.34;5113509;28;20028;-36
2023/06/26 06:22:17;;;;;;;9.77;2.85;;;;;;;21.76;77.81;101484.38;5113896;28;20027;-36
2023/06/26 06:24:43;;;;;;;10.65;3.25;;;;;;;21.85;78.00;101488.16;5113905;28;20043;-36
2023/06/26 06:27:09;;;;;;;8.15;2.70;;;;;;;21.90;78.03;101501.06;5113276;28;20031;-36
2023/06/26 06:29:34;;;;;;;6.82;2.85;;;;;;;21.91;77.07;101483.44;5113939;28;20028;-38
2023/06/26 06:31:59;;;;;;;9.18;2.45;;;;;;;22.06;77.26;101490.72;5113589;28;20051;-37
2023/06/26 06:34:25;;;;;;;8.75;2.88;;;;;;;22.08;75.96;101491.22;5113058;28;20016;-37
2023/06/26 06:36:50;;;;;;;7.25;2.90;;;;;;;22.01;76.21;101483.34;5113759;28;20038;-37
2023/06/26 06:39:16;;;;;;;7.38;3.00;;;;;;;22.15;75.83;101493.66;5113018;28;20440;-37
2023/06/26 06:41:41;;;;;;;9.10;3.10;;;;;;;22.19;76.10;101497.47;5113764;28;20417;-37
2023/06/26 06:44:07;;;;;;;8.48;2.95;;;;;;;22.22;76.63;101494.97;5113246;28;20073;-37
2023/06/26 06:46:32;;;;;;;8.93;3.08;;;;;;;22.39;75.47;101513.75;5113747;28;20401;-37
2023/06/26 06:48:58;;;;;;;8.07;2.67;;;;;;;22.41;74.58;101513.47;5113120;28;20027;-37
2023/06/26 06:51:23;;;;;;;7.38;2.80;;;;;;;22.47;74.36;101513.09;5113083;28;20076;-37
2023/06/26 06:53:48;;;;;;;10.50;2.55;;;;;;;22.44;73.90;101518.38;5113404;28;20077;-37
2023/06/26 06:56:14;;;;;;;9.90;2.90;;;;;;;22.54;74.21;101516.31;5113869;28;20030;-37
2023/06/26 06:58:42;;;;;;;7.82;2.40;;;;;;;22.66;73.89;101526.94;5112823;28;20065;-36
2023/06/26 07:01:09;;;;;;;7.32;2.45;;;;;;;22.58;73.59;101517.38;5113096;28;20122;-36
2023/06/26 07:03:34;;;;;;;9.02;2.70;;;;;;;22.56;73.62;101532.56;5113047;28;20066;-37
2023/06/26 07:05:59;;;;;;;8.18;2.83;;;;;;;22.45;72.53;101539.31;5112703;28;20051;-36
2023/06/26 07:08:25;;;;;;;6.05;2.33;;;;;;;22.40;72.91;101550.38;5113331;28;20023;-36
2023/06/26 07:10:50;;;;;;;5.03;2.22;;;;;;;22.30;73.44;101546.66;5112963;28;20067;-36
2023/06/26 07:13:16;;;;;;;6.53;2.58;;;;;;;22.28;73.58;101542.53;5112891;28;20024;-36
2023/06/26 07:15:41;;;;;;;6.18;2.38;;;;;;;22.38;72.61;101538.84;5113485;28;20062;-36
2023/06/26 07:18:06;;;;;;;5.57;2.30;;;;;;;22.45;72.18;101545.66;5113275;28;20055;-37
2023/06/26 07:20:32;;;;;;;4.63;2.10;;;;;;;22.40;72.03;101545.72;5113514;28;20030;-37
2023/06/26 07:22:57;;;;;;;4.75;2.20;;;;;;;22.40;73.07;101553.16;5117628;28;20059;-37
2023/06/26 07:25:22;;;;;;;6.53;2.25;;;;;;;22.47;73.06;101559.97;5117456;28;20031;-37
2023/06/26 07:27:48;;;;;;;10.77;2.40;;;;;;;22.54;73.25;101570.63;5117565;27;20062;-37
2023/06/26 07:30:13;;;;;;;5.88;2.60;;;;;;;22.49;73.42;101571.50;5116624;28;20519;-37
2023/06/26 07:32:40;;;;;;;4.95;2.33;;;;;;;22.51;73.67;101573.97;5117053;28;20447;-37
2023/06/26 07:35:06;;;;;;;7.55;2.53;;;;;;;22.59;73.85;101576.06;5115639;28;20016;-37
2023/06/26 07:37:31;;;;;;;6.07;2.40;;;;;;;22.57;73.52;101578.31;5117212;28;20565;-37
2023/06/26 07:39:57;;;;;;;3.88;2.17;;;;;;;22.62;73.98;101576.31;5116838;28;20031;-37
2023/06/26 07:42:22;;;;;;;5.55;2.33;;;;;;;22.62;73.32;101581.00;5116636;28;20056;-37
2023/06/26 07:44:48;;;;;;;5.13;2.20;;;;;;;22.46;72.38;101571.28;5116278;28;20080;-37
2023/06/26 07:47:13;;;;;;;5.72;2.28;;;;;;;22.75;72.71;101582.22;5116622;28;20449;-37
2023/06/26 07:49:40;;;;;;;5.53;2.28;;;;;;;22.84;71.33;101589.56;5116110;28;20024;-37
2023/06/26 07:52:06;;;;;;;4.20;2.10;;;;;;;22.80;69.92;101602.28;5117119;28;20357;-37
2023/06/26 07:54:31;;;;;;;7.40;2.20;;;;;;;22.81;69.13;101606.69;5116327;28;20035;-37
2023/06/26 07:56:59;;;;;;;6.10;2.15;;;;;;;22.82;68.65;101611.06;5116287;27;20431;-37
2023/06/26 07:59:26;;;;;;;8.00;2.10;;;;;;;22.76;66.49;101609.50;5115979;28;20048;-37
2023/06/26 08:01:53;;;;;;;4.88;1.77;;;;;;;22.64;66.93;101587.03;5116718;27;20344;-37
2023/06/26 08:04:20;;;;;;;3.70;1.65;;;;;;;22.80;65.70;101605.03;5116824;28;20026;-37
2023/06/26 08:06:50;;;;;;;3.28;1.40;;;;;;;22.93;65.42;101610.97;5116380;28;20388;-37
2023/06/26 08:09:16;;;;;;;5.63;1.88;;;;;;;22.95;63.25;101609.56;5115820;28;20428;-38
2023/06/26 08:11:41;;;;;;;3.88;1.30;;;;;;;22.88;62.83;101626.47;5116142;28;20034;-37
2023/06/26 08:14:07;;;;;;;3.65;1.30;;;;;;;22.93;62.48;101624.75;5115787;28;20034;-37
2023/06/26 08:16:32;;;;;;;4.03;1.10;;;;;;;22.88;60.61;101633.88;5115962;28;20428;-37
2023/06/26 08:18:57;;;;;;;3.75;1.20;;;;;;;22.72;60.01;101630.50;5115911;28;20027;-37
2023/06/26 08:21:23;;;;;;;3.40;0.93;;;;;;;22.70;58.55;101635.50;5115564;28;20114;-37
2023/06/26 08:23:48;;;;;;;4.20;1.10;;;;;;;22.77;59.75;101635.13;5115946;28;20024;-38
2023/06/26 08:26:14;;;;;;;3.47;1.20;;;;;;;22.85;58.88;101629.78;5116313;28;20019;-37
2023/06/26 08:28:39;;;;;;;4.60;0.93;;;;;;;22.97;58.43;101636.84;5115791;28;20084;-38
2023/06/26 08:31:05;;;;;;;3.08;1.00;;;;;;;23.03;57.57;101630.13;5115261;28;20374;-37
2023/06/26 08:33:30;;;;;;;2.28;0.85;;;;;;;23.03;57.51;101628.19;5115674;28;20139;-37
2023/06/26 08:35:55;;;;;;;1.65;0.70;;;;;;;23.07;57.73;101617.41;5115896;28;20474;-37
2023/06/26 08:38:21;;;;;;;2.78;1.10;;;;;;;23.20;57.78;101616.69;5115248;28;20509;-38
2023/06/26 08:40:47;;;;;;;2.47;1.08;;;;;;;23.22;56.58;101619.94;5115422;28;20173;-38
2023/06/26 08:43:12;;;;;;;1.58;0.75;;;;;;;23.38;56.36;101621.38;5115846;28;20045;-37
2023/06/26 08:45:37;;;;;;;3.92;1.00;;;;;;;23.42;55.87;101638.16;5116240;28;20047;-38
2023/06/26 08:48:06;;;;;;;2.15;0.90;;;;;;;23.60;56.31;101633.75;5115643;28;20466;-38
2023/06/26 08:50:34;;;;;;;3.80;1.20;;;;;;;23.54;56.58;101643.25;5115393;28;20040;-38
2023/06/26 08:53:11;;;;;;;5.07;1.20;;;;;;;23.58;57.01;101630.47;5115344;28;20028;-38
2023/06/26 08:55:39;;;;;;;4.28;1.30;;;;;;;23.67;54.61;101647.19;5116050;28;20027;-38
2023/06/26 08:58:04;;;;;;;5.30;1.10;;;;;;;23.71;55.58;101649.06;5115641;28;20081;-37
2023/06/26 09:00:30;;;;;;;2.28;0.90;;;;;;;23.78;56.24;101657.81;5115462;28;20047;-37
2023/06/26 09:02:56;;;;;;;2.92;1.10;;;;;;;23.78;52.83;101659.75;5115156;27;20027;-38
2023/06/26 09:05:22;;;;;;;4.95;1.40;;;;;;;23.49;53.44;101654.34;5114865;28;20026;-37
2023/06/26 09:07:47;;;;;;;3.88;1.02;;;;;;;23.30;54.88;101651.59;5115470;28;20080;-37
2023/06/26 09:10:12;;;;;;;7.53;1.17;;;;;;;23.38;56.04;101637.94;5114980;28;20463;-37
2023/06/26 09:12:38;;;;;;;6.15;1.08;;;;;;;23.59;55.44;101654.19;5115394;27;20440;-38
2023/06/26 09:15:05;;;;;;;2.97;1.10;;;;;;;23.82;55.57;101658.03;5115334;28;20115;-37
2023/06/26 09:17:33;;;;;;;6.32;1.42;;;;;;;23.70;53.76;101672.28;5114983;28;20029;-37
2023/06/26 09:19:59;;;;;;;4.75;1.38;;;;;;;23.53;53.37;101658.97;5114335;28;20023;-38
2023/06/26 09:22:24;;;;;;;3.03;1.05;;;;;;;23.68;54.97;101668.19;5114969;28;20024;-38
2023/06/26 09:24:50;;;;;;;2.50;0.85;;;;;;;23.78;53.30;101670.78;5115417;28;20043;-38
2023/06/26 09:27:16;;;;;;;3.50;1.00;;;;;;;23.88;53.98;101671.44;5115031;28;20404;-37
2023/06/26 09:29:44;;;;;;;5.18;1.10;;;;;;;23.95;52.56;101664.72;5114480;28;20074;-37
2023/06/26 09:32:10;;;;;;;5.68;1.30;;;;;;;24.18;50.73;101666.53;5114203;28;20023;-37
2023/06/26 09:34:35;;;;;;;5.63;0.98;;;;;;;24.33;50.21;101673.72;5114934;28;20084;-37
2023/06/26 09:37:03;;;;;;;2.97;1.23;;;;;;;24.44;49.72;101682.69;5114498;28;20035;-38
2023/06/26 09:39:31;;;;;;;3.05;0.75;;;;;;;24.63;48.92;101695.31;5147232;27;20042;-38
2023/06/26 09:41:57;;;;;;;3.90;1.10;;;;;;;24.63;47.64;101691.72;5114355;28;20027;-38
2023/06/26 09:44:23;;;;;;;2.63;1.02;;;;;;;24.82;48.24;101691.66;5113212;28;20019;-38
2023/06/26 09:46:48;;;;;;;3.90;0.80;;;;;;;24.87;49.16;101694.31;5115076;28;20027;-38
2023/06/26 09:49:14;;;;;;;3.15;0.80;;;;;;;24.67;47.34;101706.59;5114556;28;20439;-38
2023/06/26 09:51:41;;;;;;;2.75;1.10;;;;;;;24.64;47.29;101713.56;5114493;28;20448;-38
2023/06/26 09:54:07;;;;;;;4.63;1.13;;;;;;;24.78;47.33;101713.56;5113776;28;20552;-38
2023/06/26 09:56:33;;;;;;;2.00;0.70;;;;;;;24.75;46.60;101716.13;5114706;28;20054;-38
2023/06/26 09:59:04;;;;;;;2.35;0.80;;;;;;;24.76;47.35;101707.53;5113567;28;20044;-37
2023/06/26 10:01:30;;;;;;;3.00;0.90;;;;;;;24.57;46.88;101702.06;5114772;28;20114;-38
2023/06/26 10:03:59;;;;;;;4.70;0.82;;;;;;;24.57;46.07;101713.13;5113688;28;20111;-38
2023/06/26 10:06:31;;;;;;;2.72;0.82;;;;;;;24.37;46.17;101719.03;5113833;28;20081;-38
2023/06/26 10:08:59;;;;;;;3.45;1.10;;;;;;;24.47;46.26;101712.50;5114036;28;20028;-37
2023/06/26 10:11:29;;;;;;;3.65;0.90;;;;;;;24.66;46.76;101719.59;5114398;28;20092;-38
2023/06/26 10:13:57;;;;;;;4.55;0.88;;;;;;;24.71;44.89;101724.22;5113985;28;20457;-38
2023/06/26 10:16:26;;;;;;;3.67;0.70;;;;;;;24.79;44.88;101731.81;5114336;27;20110;-38
2023/06/26 10:19:01;;;;;;;3.85;0.70;;;;;;;24.72;44.61;101725.03;5113988;28;20447;-38
2023/06/26 10:21:29;;;;;;;2.30;0.85;;;;;;;24.86;43.55;101732.22;5113623;28;20026;-38
2023/06/26 10:23:56;;;;;;;1.63;0.73;;;;;;;24.96;44.11;101720.13;5113858;28;20024;-38
2023/06/26 10:26:24;;;;;;;5.45;1.08;;;;;;;25.02;43.53;101718.09;5113848;28;20023;-38
2023/06/26 10:28:52;;;;;;;2.95;0.70;;;;;;;24.96;42.30;101728.44;5113826;28;20028;-38
2023/06/26 10:31:21;;;;;;;4.45;0.95;;;;;;;25.10;42.57;101737.59;5113715;28;20430;-38
2023/06/26 10:33:48;;;;;;;3.35;0.90;;;;;;;25.08;42.16;101728.75;5113408;28;20066;-37
2023/06/26 10:36:15;;;;;;;3.25;1.08;;;;;;;25.27;41.99;101722.31;5113658;28;20379;-37
2023/06/26 10:39:07;;;;;;;2.15;0.60;;;;;;;25.50;42.44;101728.75;5113496;28;20063;-38
2023/06/26 10:41:38;;;;;;;2.67;0.73;;;;;;;25.38;41.10;101737.59;5113375;28;20543;-37
2023/06/26 10:44:16;;;;;;;2.67;0.90;;;;;;;25.25;41.93;101739.22;5112938;28;20396;-38
2023/06/26 10:46:55;;;;;;;4.75;0.88;;;;;;;25.15;42.06;101751.31;5113246;28;20024;-38
2023/06/26 10:49:25;;;;;;;2.15;0.70;;;;;;;25.00;40.09;101748.03;5113585;28;20119;-38
2023/06/26 10:51:51;;;;;;;2.25;0.90;;;;;;;25.11;40.72;101755.00;5113904;28;20066;-37
2023/06/26 10:54:19;;;;;;;3.20;0.90;;;;;;;25.42;42.15;101742.16;5112934;28;20072;-37
2023/06/26 10:56:49;;;;;;;3.80;1.00;;;;;;;25.29;41.75;101733.91;5113228;28;20028;-38
2023/06/26 10:59:17;;;;;;;4.82;1.00;;;;;;;25.31;39.84;101739.94;5113225;28;20382;-37
2023/06/26 11:01:44;;;;;;;2.85;0.90;;;;;;;25.43;39.81;101738.28;5113217;28;20066;-37
2023/06/26 11:04:11;;;;;;;1.73;0.80;;;;;;;25.48;38.20;101748.44;5113411;28;20085;-38
2023/06/26 11:06:41;;;;;;;2.40;0.88;;;;;;;25.46;38.52;101766.47;5113892;28;20114;-38
2023/06/26 11:09:13;;;;;;;1.48;0.70;;;;;;;25.19;39.31;101781.97;5113267;28;20061;-38
2023/06/26 11:11:51;;;;;;;2.15;0.70;;;;;;;25.20;40.03;101774.50;5113617;28;20034;-37
2023/06/26 11:14:17;;;;;;;1.80;0.80;;;;;;;25.35;39.89;101765.88;5112685;28;20514;-38
2023/06/26 11:16:43;;;;;;;4.43;0.80;;;;;;;25.37;39.68;101747.81;5113448;28;20329;-38
2023/06/26 11:19:10;;;;;;;4.25;0.90;;;;;;;25.45;39.01;101764.84;5113173;28;20107;-38
2023/06/26 11:21:38;;;;;;;1.98;0.75;;;;;;;25.73;39.43;101766.44;5113421;28;20049;-38